North Adams, Massachusetts
Current Conditions -  °F | °C
As of 4:52 PM on Thursday 23 Oct 2014 (Local Time) from KAQW Reporting Station
Haze Haze  
Wind Chill:   Ceiling: 800
Heat Index:   Visibility: 6mi
Dew Point:   Wind: 7mph
Humidity: 93%   Direction: 260°W
Pressure: 29.77"   Gusts: NA
Location:  42.7°N, 73.11°W
Report Text: KAQW 232052Z AUTO 26006KT 6SM BR BKN008 OVC013 07/06 A2977 RMK AO2 SLP085 60001 T00720061 58001
Loading
Personal Weather Stations






























Interactive Weather Map
Tropical Storm Tracking
New forecast layout! Learn more

10-Day Weather Forecast

Advertisements
Track Severe Weather on mobile